Terminal Aerodrome Forecast
Issued by NWS Twin Cities, MN

Home | Current Version | Previous Version | Graphics & Text | Print | Product List | Glossary On
Versions: 1 2 3 4 5 6 7 8 9 10 11 12 13 14 15 16 17 18 19 20
000
FTUS43 KMPX 292300
TAFEAU
TAF
KEAU 292327Z 3000/3024 VRB03KT 6SM -SHRA VCTS SCT025 BKN050CB
     FM300800 00000KT 2SM BR OVC007
     FM300900 00000KT 1/4SM FG VV002
     FM301400 35003KT 3SM BR OVC004
     FM301600 34005KT P6SM BKN010 OVC020
     FM301800 34005KT P6SM BKN025
     FM302100 35005KT P6SM SCT025=

USA.gov is the U.S. government's official web portal to all federal, state and local government web resources and services.